createdAt,value
2023-01-19T00:00:52.117Z,44.80
2023-01-19T00:01:52.112Z,45.22
2023-01-19T00:02:52.177Z,52.43
2023-01-19T00:03:52.091Z,45.18
2023-01-19T00:04:52.089Z,53.40
2023-01-19T00:05:52.163Z,48.09
2023-01-19T00:06:52.167Z,51.37
2023-01-19T00:07:53.110Z,46.49
2023-01-19T00:08:52.059Z,46.66
2023-01-19T00:09:52.030Z,52.08
2023-01-19T00:10:52.773Z,53.50
2023-01-19T00:11:52.094Z,64.00
2023-01-19T00:12:52.020Z,59.44
2023-01-19T00:13:52.086Z,46.13
2023-01-19T00:14:51.997Z,46.01
2023-01-19T00:15:52.064Z,48.82
2023-01-19T00:16:52.017Z,59.45
2023-01-19T00:17:51.988Z,45.74
2023-01-19T00:18:52.050Z,51.08
2023-01-19T00:19:52.033Z,46.21
2023-01-19T00:20:52.000Z,54.09
2023-01-19T00:21:51.950Z,53.84
2023-01-19T00:22:51.955Z,51.24
2023-01-19T00:23:51.938Z,44.98
2023-01-19T00:24:51.923Z,45.17
2023-01-19T00:25:51.937Z,50.42
2023-01-19T00:26:51.905Z,52.19
2023-01-19T00:27:51.917Z,51.34
2023-01-19T00:28:51.935Z,53.78
2023-01-19T00:29:51.887Z,49.38
2023-01-19T00:30:51.909Z,54.03
2023-01-19T00:31:51.921Z,51.10
2023-01-19T00:32:51.891Z,46.14
2023-01-19T00:33:51.873Z,59.10
2023-01-19T00:34:51.854Z,46.20
2023-01-19T00:35:51.941Z,51.92
2023-01-19T00:36:51.852Z,45.79
2023-01-19T00:37:51.858Z,44.87
2023-01-19T00:38:51.863Z,44.72
2023-01-19T00:39:51.833Z,49.64
2023-01-19T00:40:51.818Z,54.24
2023-01-19T00:41:51.812Z,54.47
2023-01-19T00:42:51.808Z,51.74
2023-01-19T00:43:51.834Z,50.42
2023-01-19T00:44:51.817Z,44.81
2023-01-19T00:45:51.872Z,45.12
2023-01-19T00:46:51.826Z,50.23
2023-01-19T00:47:51.773Z,45.58
2023-01-19T00:48:51.800Z,51.74
2023-01-19T00:49:51.911Z,51.25
2023-01-19T00:50:51.864Z,44.43
2023-01-19T00:51:51.746Z,44.54
2023-01-19T00:52:51.736Z,46.09
2023-01-19T00:53:51.739Z,47.67
2023-01-19T00:54:51.746Z,50.40
2023-01-19T00:55:51.708Z,54.80
2023-01-19T00:56:51.736Z,44.50
2023-01-19T00:57:51.744Z,51.25
2023-01-19T00:58:51.729Z,52.15
2023-01-19T00:59:51.681Z,45.82
2023-01-19T01:00:51.823Z,54.39
2023-01-19T01:01:51.799Z,45.39
2023-01-19T01:02:51.704Z,49.32
2023-01-19T01:03:51.655Z,52.91
2023-01-19T01:04:51.653Z,47.93
2023-01-19T01:05:51.626Z,47.33
2023-01-19T01:06:51.641Z,50.71
2023-01-19T01:07:51.617Z,55.14
2023-01-19T01:08:51.678Z,45.78
2023-01-19T01:09:52.256Z,53.93
2023-01-19T01:10:51.595Z,45.71
2023-01-19T01:11:51.766Z,44.16
2023-01-19T01:12:56.188Z,53.16
2023-01-19T01:13:52.564Z,52.91
2023-01-19T01:14:51.598Z,52.45
2023-01-19T01:15:51.567Z,58.37
2023-01-19T01:16:51.602Z,59.17
2023-01-19T01:17:51.607Z,50.44
2023-01-19T01:18:52.532Z,51.45
2023-01-19T01:19:51.602Z,50.75
2023-01-19T01:20:51.530Z,56.53
2023-01-19T01:21:53.888Z,54.80
2023-01-19T01:22:51.503Z,51.73
2023-01-19T01:23:51.500Z,44.18
2023-01-19T01:24:51.518Z,49.75
2023-01-19T01:25:51.491Z,45.46
2023-01-19T01:26:51.499Z,45.89
2023-01-19T01:27:51.518Z,51.31
2023-01-19T01:28:51.473Z,45.32
2023-01-19T01:29:51.463Z,44.41
2023-01-19T01:30:51.455Z,44.05
2023-01-19T01:31:51.489Z,44.07
2023-01-19T01:32:51.498Z,44.21
2023-01-19T01:33:51.768Z,49.45
2023-01-19T01:34:51.572Z,44.68
2023-01-19T01:35:51.437Z,49.28
2023-01-19T01:36:51.431Z,52.91
2023-01-19T01:37:51.461Z,50.20
2023-01-19T01:38:51.405Z,49.74
2023-01-19T01:39:51.642Z,55.28
2023-01-19T01:40:51.382Z,56.99
2023-01-19T01:41:51.448Z,45.49
2023-01-19T01:42:51.401Z,44.56
2023-01-19T01:43:51.391Z,48.79
2023-01-19T01:44:51.363Z,45.59
2023-01-19T01:45:51.360Z,50.06
2023-01-19T01:46:51.368Z,53.52
2023-01-19T01:47:51.325Z,57.18
2023-01-19T01:48:51.458Z,44.71
2023-01-19T01:49:52.355Z,57.23
2023-01-19T01:50:51.323Z,44.39
2023-01-19T01:51:51.302Z,58.19
2023-01-19T01:53:07.444Z,50.77
2023-01-19T01:53:52.305Z,55.67
2023-01-19T01:54:51.340Z,60.84
2023-01-19T01:55:51.308Z,53.59
2023-01-19T01:56:51.287Z,55.43
2023-01-19T01:57:51.270Z,54.30
2023-01-19T01:58:51.269Z,51.83
2023-01-19T01:59:51.269Z,46.86
2023-01-19T02:00:51.312Z,49.91
2023-01-19T02:01:52.253Z,54.24
2023-01-19T02:02:51.324Z,45.92
2023-01-19T02:03:51.233Z,56.28
2023-01-19T02:04:51.275Z,56.54
2023-01-19T02:05:51.223Z,45.30
2023-01-19T02:06:51.732Z,49.92
2023-01-19T02:07:51.197Z,46.05
2023-01-19T02:08:51.203Z,49.39
2023-01-19T02:09:51.175Z,47.50
2023-01-19T02:10:51.178Z,45.82
2023-01-19T02:11:51.195Z,43.93
2023-01-19T02:12:51.155Z,44.31
2023-01-19T02:13:51.203Z,55.90
2023-01-19T02:14:51.143Z,44.11
2023-01-19T02:15:51.145Z,43.77
2023-01-19T02:16:51.200Z,49.40
2023-01-19T02:17:51.130Z,50.28
2023-01-19T02:18:51.127Z,45.25
2023-01-19T02:19:51.099Z,45.06
2023-01-19T02:20:51.129Z,44.87
2023-01-19T02:21:51.130Z,44.48
2023-01-19T02:22:51.764Z,50.39
2023-01-19T02:23:51.072Z,49.51
2023-01-19T02:24:51.113Z,43.56
2023-01-19T02:25:51.075Z,50.31
2023-01-19T02:26:51.091Z,43.61
2023-01-19T02:27:51.058Z,49.17
2023-01-19T02:28:51.046Z,43.51
2023-01-19T02:29:51.020Z,44.31
2023-01-19T02:30:51.085Z,52.99
2023-01-19T02:31:51.807Z,44.57
2023-01-19T02:32:51.113Z,43.24
2023-01-19T02:33:59.911Z,43.36
2023-01-19T02:34:50.988Z,43.26
2023-01-19T02:35:51.151Z,46.19
2023-01-19T02:36:51.009Z,46.16
2023-01-19T02:37:51.031Z,49.38
2023-01-19T02:38:51.032Z,50.80
2023-01-19T02:39:51.816Z,50.28
2023-01-19T02:40:50.988Z,45.48
2023-01-19T02:41:51.007Z,47.95
2023-01-19T02:42:51.016Z,43.47
2023-01-19T02:43:50.979Z,43.88
2023-01-19T02:44:50.981Z,51.37
2023-01-19T02:45:50.980Z,45.51
2023-01-19T02:46:50.897Z,50.36
2023-01-19T02:47:50.969Z,57.82
2023-01-19T02:48:50.910Z,45.76
2023-01-19T02:49:50.972Z,46.70
2023-01-19T02:50:50.910Z,45.84
2023-01-19T02:51:50.973Z,46.77
2023-01-19T02:52:50.933Z,46.37
2023-01-19T02:53:50.916Z,54.47
2023-01-19T02:54:52.651Z,48.79
2023-01-19T02:55:50.851Z,50.44
2023-01-19T02:56:50.859Z,44.08
2023-01-19T02:57:50.903Z,49.73
2023-01-19T02:58:51.609Z,43.79
2023-01-19T02:59:50.877Z,43.48
2023-01-19T03:00:50.927Z,43.57
2023-01-19T03:01:50.939Z,43.60
2023-01-19T03:02:50.913Z,47.87
2023-01-19T03:03:50.947Z,50.06
2023-01-19T03:04:50.882Z,52.50
2023-01-19T03:05:50.844Z,47.64
2023-01-19T03:06:50.849Z,45.55
2023-01-19T03:07:50.806Z,45.71
2023-01-19T03:08:50.840Z,50.89
2023-01-19T03:09:50.877Z,45.27
2023-01-19T03:10:50.787Z,43.70
2023-01-19T03:11:50.792Z,43.63
2023-01-19T03:12:50.738Z,44.36
2023-01-19T03:13:50.798Z,47.35
2023-01-19T03:14:50.752Z,55.61
2023-01-19T03:15:50.754Z,50.70
2023-01-19T03:16:51.386Z,54.10
2023-01-19T03:17:50.717Z,50.45
2023-01-19T03:18:50.758Z,45.09
2023-01-19T03:19:50.713Z,45.67
2023-01-19T03:20:51.736Z,45.95
2023-01-19T03:21:50.678Z,58.35
2023-01-19T03:22:50.703Z,50.72
2023-01-19T03:23:50.694Z,52.39
2023-01-19T03:24:50.675Z,59.50
2023-01-19T03:25:50.655Z,51.92
2023-01-19T03:26:50.716Z,56.01
2023-01-19T03:27:50.633Z,50.74
2023-01-19T03:28:50.705Z,43.82
2023-01-19T03:29:50.655Z,43.66
2023-01-19T03:30:50.686Z,53.12
2023-01-19T03:31:50.667Z,53.33
2023-01-19T03:32:50.654Z,53.48
2023-01-19T03:33:50.671Z,50.41
2023-01-19T03:34:50.599Z,54.61
2023-01-19T03:35:50.588Z,51.66
2023-01-19T03:36:50.581Z,55.01
2023-01-19T03:37:50.656Z,50.00
2023-01-19T03:38:50.573Z,45.36
2023-01-19T03:39:50.578Z,46.42
2023-01-19T03:40:50.556Z,45.16
2023-01-19T03:41:50.594Z,50.83
2023-01-19T03:42:50.599Z,54.76
2023-01-19T03:43:50.602Z,49.80
2023-01-19T03:44:50.597Z,43.76
2023-01-19T03:45:50.546Z,48.60
2023-01-19T03:46:50.579Z,50.77
2023-01-19T04:03:57.325Z,51.27
2023-01-19T04:04:58.455Z,49.25
2023-01-19T04:05:59.427Z,50.67
2023-01-19T04:06:58.415Z,56.70
2023-01-19T04:07:58.410Z,62.55
2023-01-19T04:08:58.415Z,60.59
2023-01-19T04:09:59.014Z,63.63
2023-01-19T04:10:58.607Z,57.63
2023-01-19T04:11:58.457Z,49.05
2023-01-19T04:12:58.597Z,55.78
2023-01-19T04:13:58.389Z,50.06
2023-01-19T04:14:58.399Z,55.39
2023-01-19T04:15:58.392Z,55.58
2023-01-19T04:16:58.355Z,44.21
2023-01-19T04:17:58.378Z,55.48
2023-01-19T04:18:58.350Z,59.12
2023-01-19T04:19:58.346Z,59.44
2023-01-19T04:20:58.360Z,60.36
2023-01-19T04:21:58.344Z,54.39
2023-01-19T04:22:58.687Z,67.57
2023-01-19T04:23:58.290Z,66.20
2023-01-19T04:24:58.294Z,59.18
2023-01-19T04:25:58.324Z,50.03
2023-01-19T04:26:58.312Z,55.88
2023-01-19T04:27:58.312Z,63.38
2023-01-19T04:28:58.254Z,70.14
2023-01-19T04:29:58.293Z,70.28
2023-01-19T04:30:58.275Z,60.87
2023-01-19T04:31:58.304Z,66.73
2023-01-19T04:32:59.350Z,66.13
2023-01-19T04:33:58.240Z,58.37
2023-01-19T04:34:58.216Z,63.54
2023-01-19T04:35:58.212Z,61.49
2023-01-19T04:36:58.189Z,64.57
2023-01-19T04:37:59.029Z,63.56
2023-01-19T04:38:58.176Z,62.92
2023-01-19T04:39:58.184Z,61.23
2023-01-19T04:40:58.172Z,64.41
2023-01-19T04:41:58.150Z,60.17
2023-01-19T04:42:58.313Z,62.93
2023-01-19T04:43:58.145Z,66.44
2023-01-19T04:44:58.165Z,62.60
2023-01-19T04:45:58.133Z,64.26
2023-01-19T04:46:58.149Z,62.35
2023-01-19T04:47:58.119Z,56.84
2023-01-19T04:48:58.168Z,55.09
2023-01-19T04:49:58.112Z,61.54
2023-01-19T04:50:58.945Z,57.44
2023-01-19T04:51:58.087Z,61.95
2023-01-19T04:52:58.465Z,57.36
2023-01-19T04:53:58.173Z,59.75
2023-01-19T04:54:58.079Z,68.60
2023-01-19T04:55:58.082Z,62.48
2023-01-19T04:56:58.052Z,67.55
2023-01-19T04:57:58.044Z,55.86
2023-01-19T04:58:58.064Z,59.76
2023-01-19T04:59:58.021Z,57.89
2023-01-19T05:00:58.051Z,62.29
2023-01-19T05:01:58.083Z,68.96
2023-01-19T05:02:58.249Z,55.57
2023-01-19T05:03:58.005Z,62.41
2023-01-19T05:04:58.005Z,64.10
2023-01-19T05:05:58.012Z,72.93
2023-01-19T05:06:57.977Z,65.88
2023-01-19T05:07:57.977Z,54.89
2023-01-19T05:08:57.959Z,56.57
2023-01-19T05:09:57.990Z,53.01
2023-01-19T05:10:57.975Z,63.12
2023-01-19T05:11:57.969Z,65.02
2023-01-19T05:12:58.372Z,66.39
2023-01-19T05:13:57.921Z,69.29
2023-01-19T05:14:57.972Z,58.82
2023-01-19T05:15:57.925Z,62.01
2023-01-19T05:16:57.916Z,62.93
2023-01-19T05:17:57.893Z,65.16
2023-01-19T05:18:57.907Z,64.45
2023-01-19T05:19:57.876Z,59.20
2023-01-19T05:20:57.872Z,62.84
2023-01-19T05:21:57.846Z,67.17
2023-01-19T05:22:58.258Z,63.32
2023-01-19T05:23:57.838Z,66.10
2023-01-19T05:24:57.839Z,62.97
2023-01-19T05:25:57.846Z,62.39
2023-01-19T05:26:57.844Z,69.41
2023-01-19T05:27:57.863Z,68.90
2023-01-19T05:28:57.801Z,61.74
2023-01-19T05:29:57.825Z,68.58
2023-01-19T05:30:57.919Z,66.56
2023-01-19T05:31:57.861Z,66.83
2023-01-19T05:32:57.859Z,65.26
2023-01-19T05:33:57.805Z,70.51
2023-01-19T05:34:57.752Z,67.16
2023-01-19T05:35:57.745Z,62.61
2023-01-19T05:36:57.749Z,68.81
2023-01-19T05:37:57.771Z,64.28
2023-01-19T05:38:58.060Z,64.73
2023-01-19T05:39:57.701Z,67.55
2023-01-19T05:40:57.699Z,67.97
2023-01-19T05:41:57.730Z,66.07
2023-01-19T05:42:57.795Z,69.51
2023-01-19T05:43:57.677Z,68.47
2023-01-19T05:44:57.675Z,67.29
2023-01-19T05:45:57.692Z,70.00
2023-01-19T05:46:57.706Z,65.80
2023-01-19T05:47:58.088Z,65.52
2023-01-19T05:48:58.687Z,66.30
2023-01-19T05:49:57.653Z,66.12
2023-01-19T05:50:57.631Z,71.41
2023-01-19T05:51:57.623Z,66.78
2023-01-19T05:52:57.710Z,71.09
2023-01-19T05:53:57.636Z,66.70
2023-01-19T05:54:57.639Z,65.00
2023-01-19T05:55:57.677Z,72.84
2023-01-19T05:56:57.590Z,67.31
2023-01-19T05:57:57.620Z,68.37
2023-01-19T05:58:57.629Z,66.80
2023-01-19T05:59:57.622Z,65.08
2023-01-19T06:00:57.619Z,71.68
2023-01-19T06:01:57.594Z,55.48
2023-01-19T06:02:57.684Z,62.65
2023-01-19T06:03:57.588Z,69.68
2023-01-19T06:04:57.560Z,67.04
2023-01-19T06:05:57.517Z,65.90
2023-01-19T06:06:57.530Z,75.95
2023-01-19T06:07:57.507Z,70.49
2023-01-19T06:08:57.502Z,67.13
2023-01-19T06:09:57.518Z,72.40
2023-01-19T06:10:57.517Z,72.05
2023-01-19T06:11:57.497Z,66.12
2023-01-19T06:12:57.481Z,70.30
2023-01-19T06:13:57.446Z,70.69
2023-01-19T06:14:57.473Z,72.51
2023-01-19T06:15:57.495Z,66.50
2023-01-19T06:16:57.511Z,69.19
2023-01-19T06:17:57.438Z,72.02
2023-01-19T06:18:57.427Z,66.81
2023-01-19T06:19:57.418Z,70.68
2023-01-19T06:20:57.439Z,72.17
2023-01-19T06:21:57.418Z,66.59
2023-01-19T06:22:57.398Z,71.48
2023-01-19T06:23:57.392Z,71.94
2023-01-19T06:24:57.378Z,69.89
2023-01-19T06:25:57.384Z,72.62
2023-01-19T06:26:57.398Z,68.06
2023-01-19T06:27:57.375Z,69.60
2023-01-19T06:28:57.391Z,72.18
2023-01-19T06:29:57.332Z,72.90
2023-01-19T06:30:57.401Z,68.04
2023-01-19T06:31:57.456Z,73.15
2023-01-19T06:32:57.317Z,73.17
2023-01-19T06:33:57.350Z,71.39
2023-01-19T06:34:57.305Z,70.11
2023-01-19T06:35:57.354Z,71.19
2023-01-19T06:36:57.309Z,68.79
2023-01-19T06:37:57.279Z,72.71
2023-01-19T06:38:57.283Z,71.82
2023-01-19T06:39:57.357Z,69.95
2023-01-19T06:40:57.264Z,65.64
2023-01-19T06:41:57.293Z,72.37
2023-01-19T06:42:57.253Z,69.59
2023-01-19T06:43:57.246Z,71.25
2023-01-19T06:44:57.328Z,72.31
2023-01-19T06:45:57.362Z,70.74
2023-01-19T06:47:16.054Z,70.23
2023-01-19T06:47:58.226Z,63.94
2023-01-19T06:48:57.217Z,71.01
2023-01-19T06:49:57.288Z,69.69
2023-01-19T06:50:58.703Z,69.36
2023-01-19T06:54:17.038Z,71.22
2023-01-19T06:55:17.017Z,69.70
2023-01-19T06:56:17.010Z,68.77
2023-01-19T06:57:16.964Z,68.49
2023-01-19T06:58:16.964Z,69.02
2023-01-19T06:59:16.988Z,66.67
2023-01-19T07:00:16.950Z,70.65
2023-01-19T07:01:17.072Z,70.20
2023-01-19T07:02:26.678Z,70.98
2023-01-19T07:03:18.017Z,67.49
2023-01-19T07:04:16.941Z,65.33
2023-01-19T07:05:16.906Z,63.31
2023-01-19T07:06:16.903Z,68.16
2023-01-19T07:07:16.892Z,70.92
2023-01-19T07:08:16.885Z,68.02
2023-01-19T07:09:17.029Z,67.37
2023-01-19T07:10:17.887Z,67.91
2023-01-19T07:11:24.856Z,68.18
2023-01-19T07:12:17.867Z,71.95
2023-01-19T07:13:16.865Z,70.67
2023-01-19T07:14:17.490Z,69.05
2023-01-19T07:15:16.887Z,67.22
2023-01-19T07:16:16.936Z,64.84
2023-01-19T07:17:16.838Z,69.97
2023-01-19T07:18:16.816Z,61.81
2023-01-19T07:19:16.864Z,64.88
2023-01-19T07:20:16.856Z,68.39
2023-01-19T07:21:16.812Z,63.10
2023-01-19T07:22:16.855Z,62.64
2023-01-19T07:23:16.783Z,70.13
2023-01-19T07:24:16.796Z,67.88
2023-01-19T07:25:16.787Z,66.91
2023-01-19T07:26:16.758Z,65.18
2023-01-19T07:27:16.771Z,69.78
2023-01-19T07:28:16.769Z,63.79
2023-01-19T07:29:16.761Z,69.94
2023-01-19T07:30:16.828Z,67.05
2023-01-19T07:31:16.933Z,63.12
2023-01-19T07:32:16.713Z,67.75
2023-01-19T07:33:16.715Z,65.04
2023-01-19T07:34:16.711Z,64.87
2023-01-19T07:35:16.712Z,65.98
2023-01-19T07:36:16.691Z,64.40
2023-01-19T07:37:16.694Z,63.84
2023-01-19T07:38:16.682Z,67.23
2023-01-19T07:39:16.656Z,67.31
2023-01-19T07:40:16.693Z,65.28
2023-01-19T07:41:16.668Z,67.27
2023-01-19T07:42:16.816Z,61.95
2023-01-19T07:43:16.660Z,69.02
2023-01-19T07:44:16.613Z,72.52
2023-01-19T07:45:16.626Z,62.92
2023-01-19T07:46:16.717Z,68.18
2023-01-19T07:47:16.640Z,71.01
2023-01-19T07:48:16.590Z,69.73
2023-01-19T07:49:16.588Z,66.54
2023-01-19T07:50:16.584Z,72.39
2023-01-19T07:51:16.589Z,63.41
2023-01-19T07:52:16.587Z,68.83
2023-01-19T07:53:16.555Z,66.20
2023-01-19T07:54:16.538Z,62.25
2023-01-19T07:55:16.550Z,63.91
2023-01-19T07:56:16.541Z,70.40
2023-01-19T07:57:16.556Z,67.73
2023-01-19T07:58:16.526Z,60.03
2023-01-19T07:59:16.535Z,62.77
2023-01-19T08:00:16.502Z,60.21
2023-01-19T08:01:16.593Z,70.64
2023-01-19T08:02:17.453Z,68.32
2023-01-19T08:03:17.616Z,67.10
2023-01-19T08:04:17.506Z,69.68
2023-01-19T08:05:16.476Z,68.77
2023-01-19T08:06:16.491Z,68.98
2023-01-19T08:07:16.452Z,69.09
2023-01-19T08:08:16.481Z,64.73
2023-01-19T08:09:16.466Z,67.97
2023-01-19T08:10:16.981Z,66.29
2023-01-19T08:11:16.458Z,69.54
2023-01-19T08:12:16.429Z,62.34
2023-01-19T08:13:16.434Z,68.38
2023-01-19T08:14:16.427Z,67.53
2023-01-19T08:15:17.388Z,62.69
2023-01-19T08:16:16.426Z,71.21
2023-01-19T08:17:16.384Z,69.18
2023-01-19T08:18:16.370Z,69.24
2023-01-19T08:19:16.376Z,69.24
2023-01-19T08:20:16.371Z,68.73
2023-01-19T08:21:16.373Z,67.48
2023-01-19T08:22:16.373Z,67.58
2023-01-19T08:23:16.347Z,62.56
2023-01-19T08:24:16.339Z,66.38
2023-01-19T08:25:16.309Z,61.56
2023-01-19T08:26:16.307Z,63.45
2023-01-19T08:27:16.322Z,69.81
2023-01-19T08:28:16.289Z,68.61
2023-01-19T08:29:16.296Z,67.00
2023-01-19T08:30:16.352Z,60.33
2023-01-19T08:31:21.083Z,60.69
2023-01-19T08:32:18.399Z,72.06
2023-01-19T08:33:17.001Z,69.61
2023-01-19T08:34:48.203Z,60.55
2023-01-19T08:35:16.260Z,65.80
2023-01-19T08:36:16.223Z,67.64
2023-01-19T08:37:16.227Z,68.93
2023-01-19T08:38:16.205Z,68.97
2023-01-19T08:39:16.218Z,74.12
2023-01-19T08:40:16.209Z,68.41
2023-01-19T08:41:16.221Z,64.91
2023-01-19T08:42:16.173Z,66.79
2023-01-19T08:43:16.205Z,64.12
2023-01-19T08:44:16.260Z,67.00
2023-01-19T08:45:16.183Z,68.36
2023-01-19T08:46:16.172Z,65.92
2023-01-19T08:47:16.161Z,71.56
2023-01-19T08:48:16.204Z,70.51
2023-01-19T08:49:16.148Z,65.34
2023-01-19T08:50:16.175Z,68.09
2023-01-19T08:51:16.150Z,67.55
2023-01-19T08:52:16.172Z,68.12
2023-01-19T08:53:16.219Z,67.64
2023-01-19T08:54:18.259Z,65.59
2023-01-19T08:55:16.080Z,69.91
2023-01-19T08:56:16.135Z,65.62
2023-01-19T08:57:16.081Z,68.26
2023-01-19T08:58:16.067Z,61.94
2023-01-19T08:59:16.062Z,66.65
2023-01-19T09:00:16.042Z,61.85
2023-01-19T09:01:16.100Z,67.68
2023-01-19T09:02:16.627Z,66.25
2023-01-19T09:03:16.074Z,61.63
2023-01-19T09:04:16.996Z,65.79
2023-01-19T09:05:15.999Z,53.62
2023-01-19T09:06:16.010Z,69.11
2023-01-19T09:07:16.001Z,58.51
2023-01-19T09:08:15.988Z,67.88
2023-01-19T09:09:15.983Z,68.79
2023-01-19T09:10:16.037Z,67.39
2023-01-19T09:11:15.953Z,63.45
2023-01-19T09:12:15.955Z,64.02
2023-01-19T09:13:15.984Z,55.86
2023-01-19T09:14:17.499Z,66.50
2023-01-19T09:15:15.955Z,69.71
2023-01-19T09:16:16.038Z,67.64
2023-01-19T09:17:15.929Z,67.82
2023-01-19T09:18:15.913Z,67.30
2023-01-19T09:19:16.882Z,68.67
2023-01-19T09:20:15.917Z,70.09
2023-01-19T09:21:15.895Z,67.67
2023-01-19T09:22:15.889Z,62.13
2023-01-19T09:23:15.912Z,61.67
2023-01-19T09:24:15.856Z,65.00
2023-01-19T09:25:15.843Z,69.08
2023-01-19T09:26:15.837Z,60.48
2023-01-19T09:27:15.826Z,61.87
2023-01-19T09:28:15.882Z,65.55
2023-01-19T09:29:15.827Z,68.17
2023-01-19T09:30:15.823Z,65.59
2023-01-19T09:31:15.931Z,63.57
2023-01-19T09:32:15.803Z,64.16
2023-01-19T09:33:15.798Z,69.67
2023-01-19T09:34:15.784Z,68.46
2023-01-19T09:35:15.813Z,70.08
2023-01-19T09:36:15.780Z,68.25
2023-01-19T09:37:15.755Z,68.00
2023-01-19T09:38:15.772Z,71.31
2023-01-19T09:39:15.770Z,70.35
2023-01-19T09:40:15.810Z,71.17
2023-01-19T09:41:15.750Z,64.46
2023-01-19T09:42:15.718Z,63.31
2023-01-19T09:43:15.733Z,68.56
2023-01-19T09:44:15.718Z,67.39
2023-01-19T09:45:15.703Z,63.85
2023-01-19T09:46:15.804Z,65.31
2023-01-19T09:47:15.747Z,62.26
2023-01-19T09:48:15.660Z,67.90
2023-01-19T09:49:15.696Z,68.62
2023-01-19T09:50:15.664Z,62.54
2023-01-19T09:51:15.650Z,70.53
2023-01-19T09:52:15.645Z,65.09
2023-01-19T09:53:15.699Z,61.63
2023-01-19T09:54:15.641Z,68.01
2023-01-19T09:55:15.640Z,67.65
2023-01-19T09:56:15.627Z,66.02
2023-01-19T09:57:15.607Z,72.29
2023-01-19T09:58:15.620Z,66.50
2023-01-19T09:59:15.601Z,64.65
2023-01-19T10:00:15.591Z,69.17
2023-01-19T10:01:15.763Z,68.91
2023-01-19T10:02:15.558Z,68.70
2023-01-19T10:03:15.616Z,68.92
2023-01-19T10:04:15.566Z,70.60
2023-01-19T10:05:15.526Z,65.23
2023-01-19T10:06:16.558Z,67.06
2023-01-19T10:07:15.520Z,66.85
2023-01-19T10:08:15.523Z,68.12
2023-01-19T10:09:15.518Z,60.92
2023-01-19T10:10:15.552Z,67.61
2023-01-19T10:11:15.493Z,66.35
2023-01-19T10:12:15.480Z,64.81
2023-01-19T10:13:15.492Z,64.09
2023-01-19T10:14:15.490Z,64.50
2023-01-19T10:15:16.482Z,63.33
2023-01-19T10:16:15.510Z,64.08
2023-01-19T10:17:15.514Z,70.42
2023-01-19T10:18:15.439Z,65.17
2023-01-19T10:19:15.454Z,68.33
2023-01-19T10:20:15.429Z,63.04
2023-01-19T10:21:15.428Z,64.99
2023-01-19T10:22:15.396Z,68.03
2023-01-19T10:23:15.387Z,66.39
2023-01-19T10:24:15.403Z,70.48
2023-01-19T10:25:15.409Z,69.38
2023-01-19T10:26:15.403Z,65.64
2023-01-19T10:27:15.407Z,63.41
2023-01-19T10:28:15.437Z,70.68
2023-01-19T10:29:15.381Z,72.94
2023-01-19T10:30:15.350Z,71.48
2023-01-19T10:31:15.517Z,69.75
2023-01-19T10:32:15.383Z,64.70
2023-01-19T10:33:15.313Z,67.88
2023-01-19T10:34:18.108Z,68.40
2023-01-19T10:35:15.314Z,72.50
2023-01-19T10:36:15.292Z,66.60
2023-01-19T10:39:03.483Z,66.78
2023-01-19T10:40:01.915Z,70.19
2023-01-19T10:41:03.025Z,68.44
2023-01-19T10:42:03.041Z,64.63
2023-01-19T10:43:03.481Z,69.00
2023-01-19T10:44:03.065Z,62.13
2023-01-19T10:45:02.979Z,67.22
2023-01-19T10:46:03.026Z,66.49
2023-01-19T10:47:03.016Z,70.31
2023-01-19T10:48:03.040Z,68.05
2023-01-19T10:49:02.993Z,69.97
2023-01-19T10:50:02.987Z,68.46
2023-01-19T10:51:02.951Z,65.23
2023-01-19T10:52:02.999Z,72.98
2023-01-19T10:53:03.359Z,68.54
2023-01-19T10:54:02.976Z,65.69
2023-01-19T10:55:02.914Z,74.51
2023-01-19T10:56:02.890Z,69.76
2023-01-19T10:57:02.925Z,71.73
2023-01-19T10:58:02.899Z,70.62
2023-01-19T10:59:02.905Z,72.62
2023-01-19T11:00:02.943Z,66.30
2023-01-19T11:01:02.957Z,70.68
2023-01-19T11:02:03.013Z,67.31
2023-01-19T11:03:03.251Z,72.41
2023-01-19T11:04:02.872Z,71.91
2023-01-19T11:05:02.836Z,68.07
2023-01-19T11:06:02.841Z,68.61
2023-01-19T11:07:02.830Z,73.37
2023-01-19T11:08:02.835Z,68.45
2023-01-19T11:09:02.816Z,67.46
2023-01-19T11:10:02.792Z,70.53
2023-01-19T11:11:02.814Z,73.29
2023-01-19T11:12:02.810Z,71.50
2023-01-19T11:13:03.264Z,72.05
2023-01-19T11:14:02.824Z,68.45
2023-01-19T11:15:02.754Z,72.67
2023-01-19T11:16:02.827Z,66.33
2023-01-19T11:17:02.750Z,72.07
2023-01-19T11:18:02.737Z,69.96
2023-01-19T11:19:02.748Z,74.01
2023-01-19T11:20:02.757Z,69.73
2023-01-19T11:21:02.763Z,75.21
2023-01-19T11:22:02.731Z,67.48
2023-01-19T11:23:03.122Z,73.32
2023-01-19T11:24:02.706Z,68.16
2023-01-19T11:25:02.713Z,66.13
2023-01-19T11:26:02.695Z,69.41
2023-01-19T11:27:03.578Z,69.90
2023-01-19T11:28:03.615Z,74.18
2023-01-19T11:29:02.651Z,68.97
2023-01-19T11:30:02.670Z,70.50
2023-01-19T11:31:02.689Z,71.71
2023-01-19T11:32:02.711Z,67.95
2023-01-19T11:33:02.956Z,70.30
2023-01-19T11:34:02.653Z,66.41
2023-01-19T11:35:02.634Z,68.10
2023-01-19T11:36:02.608Z,75.88
2023-01-19T11:37:02.622Z,71.94
2023-01-19T11:38:02.578Z,69.77
2023-01-19T11:39:02.576Z,68.49
2023-01-19T11:40:02.589Z,68.05
2023-01-19T11:41:03.428Z,67.01
2023-01-19T11:42:02.554Z,73.17
2023-01-19T11:43:02.963Z,72.91
2023-01-19T11:44:02.563Z,71.74
2023-01-19T11:45:02.557Z,68.82
2023-01-19T11:46:02.621Z,74.35
2023-01-19T11:47:02.523Z,73.46
2023-01-19T11:48:02.885Z,70.42
2023-01-19T11:49:02.519Z,74.63
2023-01-19T11:50:02.545Z,71.91
2023-01-19T11:51:02.492Z,69.45
2023-01-19T11:52:02.531Z,71.16
2023-01-19T11:53:02.458Z,67.51
2023-01-19T11:54:02.496Z,68.50
2023-01-19T11:55:02.455Z,71.55
2023-01-19T11:56:02.441Z,70.83
2023-01-19T11:57:02.440Z,71.23
2023-01-19T11:58:02.908Z,71.81
2023-01-19T11:59:02.438Z,68.08
2023-01-19T12:00:02.433Z,73.33
2023-01-19T12:01:02.461Z,69.44
2023-01-19T12:02:02.566Z,70.81
2023-01-19T12:03:02.471Z,68.22
2023-01-19T12:04:02.401Z,67.09
2023-01-19T12:05:02.389Z,63.71
2023-01-19T12:06:02.399Z,70.55
2023-01-19T12:07:02.371Z,70.32
2023-01-19T12:08:05.358Z,71.61
2023-01-19T12:09:02.367Z,71.19
2023-01-19T12:10:02.347Z,70.83
2023-01-19T12:11:02.355Z,70.82
2023-01-19T12:12:02.330Z,75.30
2023-01-19T12:13:02.338Z,70.50
2023-01-19T12:14:02.659Z,66.58
2023-01-19T12:15:02.381Z,65.75
2023-01-19T12:16:02.332Z,70.79
2023-01-19T12:17:02.315Z,70.64
2023-01-19T12:18:02.733Z,71.40
2023-01-19T12:19:02.303Z,70.52
2023-01-19T12:20:02.272Z,73.14
2023-01-19T12:21:04.092Z,68.74
2023-01-19T12:22:03.249Z,69.86
2023-01-19T12:23:02.294Z,69.89
2023-01-19T12:24:02.276Z,72.80
2023-01-19T12:25:02.228Z,72.02
2023-01-19T12:26:02.223Z,72.55
2023-01-19T12:27:02.228Z,69.64
2023-01-19T12:28:02.227Z,71.59
2023-01-19T12:29:02.240Z,70.55
2023-01-19T12:30:02.237Z,72.01
2023-01-19T12:31:02.394Z,70.28
2023-01-19T12:32:02.317Z,72.74
2023-01-19T12:33:02.251Z,70.53
2023-01-19T12:34:02.207Z,70.58
2023-01-19T12:35:02.196Z,66.41
2023-01-19T12:36:02.173Z,66.51
2023-01-19T12:37:02.178Z,72.43
2023-01-19T12:38:03.058Z,71.55
2023-01-19T12:39:03.162Z,69.95
2023-01-19T12:40:02.148Z,68.56
2023-01-19T12:41:02.140Z,73.77
2023-01-19T12:42:02.147Z,69.83
2023-01-19T12:43:02.133Z,66.17
2023-01-19T12:44:02.152Z,69.09
2023-01-19T12:45:02.097Z,65.21
2023-01-19T12:46:02.143Z,70.50
2023-01-19T12:47:02.072Z,72.66
2023-01-19T12:48:02.133Z,64.61
2023-01-19T12:49:02.088Z,66.36
2023-01-19T12:50:02.082Z,72.48
2023-01-19T12:51:02.063Z,65.83
2023-01-19T12:52:02.075Z,66.35
2023-01-19T12:53:02.048Z,70.52
2023-01-19T12:54:02.085Z,67.21
2023-01-19T12:55:02.044Z,68.68
2023-01-19T12:56:02.018Z,72.20
2023-01-19T12:57:01.989Z,74.04
2023-01-19T12:58:02.003Z,71.00
2023-01-19T12:59:02.035Z,70.74
2023-01-19T13:00:02.034Z,67.31
2023-01-19T13:01:02.117Z,72.04
2023-01-19T13:02:02.025Z,74.29
2023-01-19T13:03:01.975Z,62.78
2023-01-19T13:04:02.009Z,68.78
2023-01-19T13:05:01.943Z,71.41
2023-01-19T13:06:01.920Z,74.05
2023-01-19T13:07:01.923Z,72.11
2023-01-19T13:08:01.980Z,68.44
2023-01-19T13:09:01.954Z,64.88
2023-01-19T13:10:01.972Z,73.22
2023-01-19T13:11:01.905Z,70.32
2023-01-19T13:12:01.883Z,71.65
2023-01-19T13:13:01.934Z,72.04